sensor_id;sensor_type;location;lat;lon;timestamp;P1;durP1;ratioP1;P2;durP2;ratioP2
12476;SDS011;6303;51.504;6.300;2022-11-14T00:01:47;2.60;;;2.40;;
12476;SDS011;6303;51.504;6.300;2022-11-14T00:04:32;2.90;;;2.70;;
12476;SDS011;6303;51.504;6.300;2022-11-14T00:07:18;2.60;;;2.40;;
12476;SDS011;6303;51.504;6.300;2022-11-14T00:10:04;2.88;;;2.67;;
12476;SDS011;6303;51.504;6.300;2022-11-14T00:12:51;2.88;;;2.67;;
12476;SDS011;6303;51.504;6.300;2022-11-14T00:15:36;2.42;;;2.22;;
12476;SDS011;6303;51.504;6.300;2022-11-14T00:18:22;2.85;;;2.50;;
12476;SDS011;6303;51.504;6.300;2022-11-14T00:21:07;3.17;;;2.90;;
12476;SDS011;6303;51.504;6.300;2022-11-14T00:23:54;2.67;;;2.47;;
12476;SDS011;6303;51.504;6.300;2022-11-14T00:26:40;2.95;;;2.70;;
12476;SDS011;6303;51.504;6.300;2022-11-14T00:29:27;3.08;;;2.78;;
12476;SDS011;6303;51.504;6.300;2022-11-14T00:32:13;3.00;;;2.72;;
12476;SDS011;6303;51.504;6.300;2022-11-14T00:34:59;3.00;;;2.60;;
12476;SDS011;6303;51.504;6.300;2022-11-14T00:37:45;2.72;;;2.53;;
12476;SDS011;6303;51.504;6.300;2022-11-14T00:40:30;2.50;;;2.30;;
12476;SDS011;6303;51.504;6.300;2022-11-14T00:43:16;3.08;;;2.80;;
12476;SDS011;6303;51.504;6.300;2022-11-14T00:46:03;2.90;;;2.60;;
12476;SDS011;6303;51.504;6.300;2022-11-14T00:48:48;2.70;;;2.50;;
12476;SDS011;6303;51.504;6.300;2022-11-14T00:51:34;3.10;;;2.80;;
12476;SDS011;6303;51.504;6.300;2022-11-14T00:54:20;3.10;;;2.50;;
12476;SDS011;6303;51.504;6.300;2022-11-14T00:57:05;3.25;;;2.72;;
12476;SDS011;6303;51.504;6.300;2022-11-14T00:59:51;2.80;;;2.40;;
12476;SDS011;6303;51.504;6.300;2022-11-14T01:02:39;2.70;;;2.50;;
12476;SDS011;6303;51.504;6.300;2022-11-14T01:05:26;2.70;;;2.50;;
12476;SDS011;6303;51.504;6.300;2022-11-14T01:08:12;3.00;;;2.80;;
12476;SDS011;6303;51.504;6.300;2022-11-14T01:10:59;3.05;;;2.78;;
12476;SDS011;6303;51.504;6.300;2022-11-14T01:13:45;2.85;;;2.65;;
12476;SDS011;6303;51.504;6.300;2022-11-14T01:16:30;3.10;;;2.60;;
12476;SDS011;6303;51.504;6.300;2022-11-14T01:19:17;3.17;;;2.88;;
12476;SDS011;6303;51.504;6.300;2022-11-14T01:22:02;2.92;;;2.60;;
12476;SDS011;6303;51.504;6.300;2022-11-14T01:24:48;3.20;;;2.90;;
12476;SDS011;6303;51.504;6.300;2022-11-14T01:27:34;3.10;;;2.80;;
12476;SDS011;6303;51.504;6.300;2022-11-14T01:30:19;3.17;;;2.78;;
12476;SDS011;6303;51.504;6.300;2022-11-14T01:33:05;2.97;;;2.75;;
12476;SDS011;6303;51.504;6.300;2022-11-14T01:35:52;2.70;;;2.50;;
12476;SDS011;6303;51.504;6.300;2022-11-14T01:38:38;2.85;;;2.55;;
12476;SDS011;6303;51.504;6.300;2022-11-14T01:41:24;2.67;;;2.45;;
12476;SDS011;6303;51.504;6.300;2022-11-14T01:44:13;2.90;;;2.70;;
12476;SDS011;6303;51.504;6.300;2022-11-14T01:47:00;2.80;;;2.60;;
12476;SDS011;6303;51.504;6.300;2022-11-14T01:49:46;2.75;;;2.55;;
12476;SDS011;6303;51.504;6.300;2022-11-14T01:52:36;2.75;;;2.55;;
12476;SDS011;6303;51.504;6.300;2022-11-14T01:55:24;2.50;;;2.30;;
12476;SDS011;6303;51.504;6.300;2022-11-14T01:58:10;3.15;;;2.70;;
12476;SDS011;6303;51.504;6.300;2022-11-14T02:00:56;4.55;;;2.70;;
12476;SDS011;6303;51.504;6.300;2022-11-14T02:03:43;2.75;;;2.55;;
12476;SDS011;6303;51.504;6.300;2022-11-14T02:06:30;2.80;;;2.60;;
12476;SDS011;6303;51.504;6.300;2022-11-14T02:09:18;2.80;;;2.60;;
12476;SDS011;6303;51.504;6.300;2022-11-14T02:12:05;3.03;;;2.83;;
12476;SDS011;6303;51.504;6.300;2022-11-14T02:14:53;2.88;;;2.67;;
12476;SDS011;6303;51.504;6.300;2022-11-14T02:17:41;2.60;;;2.40;;
12476;SDS011;6303;51.504;6.300;2022-11-14T02:20:29;2.85;;;2.65;;
12476;SDS011;6303;51.504;6.300;2022-11-14T02:23:26;3.05;;;2.80;;
12476;SDS011;6303;51.504;6.300;2022-11-14T02:26:14;3.03;;;2.83;;
12476;SDS011;6303;51.504;6.300;2022-11-14T02:29:01;3.13;;;2.83;;
12476;SDS011;6303;51.504;6.300;2022-11-14T02:31:47;2.78;;;2.58;;
12476;SDS011;6303;51.504;6.300;2022-11-14T02:34:33;3.28;;;2.70;;
12476;SDS011;6303;51.504;6.300;2022-11-14T02:37:19;3.10;;;2.80;;
12476;SDS011;6303;51.504;6.300;2022-11-14T02:40:05;2.95;;;2.63;;
12476;SDS011;6303;51.504;6.300;2022-11-14T02:42:52;2.97;;;2.70;;
12476;SDS011;6303;51.504;6.300;2022-11-14T02:45:37;3.35;;;2.80;;
12476;SDS011;6303;51.504;6.300;2022-11-14T02:48:23;3.47;;;2.75;;
12476;SDS011;6303;51.504;6.300;2022-11-14T02:51:09;2.72;;;2.53;;
12476;SDS011;6303;51.504;6.300;2022-11-14T02:53:56;2.80;;;2.60;;
12476;SDS011;6303;51.504;6.300;2022-11-14T02:56:41;2.90;;;2.70;;
12476;SDS011;6303;51.504;6.300;2022-11-14T02:59:27;2.70;;;2.50;;
12476;SDS011;6303;51.504;6.300;2022-11-14T03:02:12;2.55;;;2.35;;
12476;SDS011;6303;51.504;6.300;2022-11-14T03:04:58;2.78;;;2.58;;
12476;SDS011;6303;51.504;6.300;2022-11-14T03:07:44;3.13;;;2.75;;
12476;SDS011;6303;51.504;6.300;2022-11-14T03:10:31;2.75;;;2.55;;
12476;SDS011;6303;51.504;6.300;2022-11-14T03:13:16;2.80;;;2.60;;
12476;SDS011;6303;51.504;6.300;2022-11-14T03:16:05;2.80;;;2.60;;
12476;SDS011;6303;51.504;6.300;2022-11-14T03:18:51;2.85;;;2.65;;
12476;SDS011;6303;51.504;6.300;2022-11-14T03:21:37;2.60;;;2.40;;
12476;SDS011;6303;51.504;6.300;2022-11-14T03:24:23;2.65;;;2.45;;
12476;SDS011;6303;51.504;6.300;2022-11-14T03:27:10;2.60;;;2.40;;
12476;SDS011;6303;51.504;6.300;2022-11-14T03:29:55;2.70;;;2.50;;
12476;SDS011;6303;51.504;6.300;2022-11-14T03:32:41;3.00;;;2.80;;
12476;SDS011;6303;51.504;6.300;2022-11-14T03:35:26;2.75;;;2.55;;
12476;SDS011;6303;51.504;6.300;2022-11-14T03:38:12;2.90;;;2.70;;
12476;SDS011;6303;51.504;6.300;2022-11-14T03:40:57;2.60;;;2.40;;
12476;SDS011;6303;51.504;6.300;2022-11-14T03:43:44;2.90;;;2.60;;
12476;SDS011;6303;51.504;6.300;2022-11-14T03:46:30;3.03;;;2.72;;
12476;SDS011;6303;51.504;6.300;2022-11-14T03:49:15;2.70;;;2.50;;
12476;SDS011;6303;51.504;6.300;2022-11-14T03:52:01;2.88;;;2.63;;
12476;SDS011;6303;51.504;6.300;2022-11-14T03:54:46;3.20;;;2.90;;
12476;SDS011;6303;51.504;6.300;2022-11-14T03:57:33;3.20;;;3.00;;
12476;SDS011;6303;51.504;6.300;2022-11-14T04:00:20;2.70;;;2.50;;
12476;SDS011;6303;51.504;6.300;2022-11-14T04:03:05;2.88;;;2.60;;
12476;SDS011;6303;51.504;6.300;2022-11-14T04:05:51;2.90;;;2.70;;
12476;SDS011;6303;51.504;6.300;2022-11-14T04:08:38;3.20;;;2.90;;
12476;SDS011;6303;51.504;6.300;2022-11-14T04:11:24;2.95;;;2.75;;
12476;SDS011;6303;51.504;6.300;2022-11-14T04:14:09;2.70;;;2.50;;
12476;SDS011;6303;51.504;6.300;2022-11-14T04:16:56;2.85;;;2.63;;
12476;SDS011;6303;51.504;6.300;2022-11-14T04:19:42;3.03;;;2.67;;
12476;SDS011;6303;51.504;6.300;2022-11-14T04:22:27;2.85;;;2.65;;
12476;SDS011;6303;51.504;6.300;2022-11-14T04:25:13;2.90;;;2.70;;
12476;SDS011;6303;51.504;6.300;2022-11-14T04:27:59;2.75;;;2.50;;
12476;SDS011;6303;51.504;6.300;2022-11-14T04:30:44;3.78;;;2.72;;
12476;SDS011;6303;51.504;6.300;2022-11-14T04:33:31;3.35;;;3.10;;
12476;SDS011;6303;51.504;6.300;2022-11-14T04:36:16;2.90;;;2.70;;
12476;SDS011;6303;51.504;6.300;2022-11-14T04:39:02;3.58;;;2.97;;
12476;SDS011;6303;51.504;6.300;2022-11-14T04:41:48;3.33;;;3.03;;
12476;SDS011;6303;51.504;6.300;2022-11-14T04:44:33;3.22;;;2.92;;
12476;SDS011;6303;51.504;6.300;2022-11-14T04:47:19;3.22;;;2.83;;
12476;SDS011;6303;51.504;6.300;2022-11-14T04:50:06;2.90;;;2.70;;
12476;SDS011;6303;51.504;6.300;2022-11-14T04:52:52;3.28;;;2.90;;
12476;SDS011;6303;51.504;6.300;2022-11-14T04:55:38;2.80;;;2.60;;
12476;SDS011;6303;51.504;6.300;2022-11-14T04:58:23;3.05;;;2.80;;
12476;SDS011;6303;51.504;6.300;2022-11-14T05:01:09;3.00;;;2.80;;
12476;SDS011;6303;51.504;6.300;2022-11-14T05:03:56;2.80;;;2.55;;
12476;SDS011;6303;51.504;6.300;2022-11-14T05:06:43;2.83;;;2.63;;
12476;SDS011;6303;51.504;6.300;2022-11-14T05:09:29;2.97;;;2.78;;
12476;SDS011;6303;51.504;6.300;2022-11-14T05:12:14;3.38;;;3.08;;
12476;SDS011;6303;51.504;6.300;2022-11-14T05:15:00;2.90;;;2.70;;
12476;SDS011;6303;51.504;6.300;2022-11-14T05:17:45;3.08;;;2.78;;
12476;SDS011;6303;51.504;6.300;2022-11-14T05:20:31;3.00;;;2.80;;
12476;SDS011;6303;51.504;6.300;2022-11-14T05:23:19;3.72;;;2.60;;
12476;SDS011;6303;51.504;6.300;2022-11-14T05:26:06;3.10;;;2.80;;
12476;SDS011;6303;51.504;6.300;2022-11-14T05:28:53;3.25;;;2.90;;
12476;SDS011;6303;51.504;6.300;2022-11-14T05:31:39;3.25;;;2.90;;
12476;SDS011;6303;51.504;6.300;2022-11-14T05:34:24;2.75;;;2.55;;
12476;SDS011;6303;51.504;6.300;2022-11-14T05:37:10;2.83;;;2.63;;
12476;SDS011;6303;51.504;6.300;2022-11-14T05:39:57;3.10;;;2.90;;
12476;SDS011;6303;51.504;6.300;2022-11-14T05:42:43;3.30;;;3.05;;
12476;SDS011;6303;51.504;6.300;2022-11-14T05:45:29;3.33;;;3.03;;
12476;SDS011;6303;51.504;6.300;2022-11-14T05:48:14;2.70;;;2.50;;
12476;SDS011;6303;51.504;6.300;2022-11-14T05:51:00;3.03;;;2.80;;
12476;SDS011;6303;51.504;6.300;2022-11-14T05:53:47;3.13;;;2.90;;
12476;SDS011;6303;51.504;6.300;2022-11-14T05:56:33;3.53;;;3.08;;
12476;SDS011;6303;51.504;6.300;2022-11-14T05:59:19;3.67;;;3.03;;
12476;SDS011;6303;51.504;6.300;2022-11-14T06:02:05;3.30;;;3.00;;
12476;SDS011;6303;51.504;6.300;2022-11-14T06:04:50;3.17;;;2.95;;
12476;SDS011;6303;51.504;6.300;2022-11-14T06:07:36;3.40;;;3.00;;
12476;SDS011;6303;51.504;6.300;2022-11-14T06:10:22;4.40;;;3.00;;
12476;SDS011;6303;51.504;6.300;2022-11-14T06:13:09;4.60;;;2.83;;
12476;SDS011;6303;51.504;6.300;2022-11-14T06:15:57;3.55;;;2.90;;
12476;SDS011;6303;51.504;6.300;2022-11-14T06:18:43;5.55;;;2.92;;
12476;SDS011;6303;51.504;6.300;2022-11-14T06:21:30;4.68;;;3.20;;
12476;SDS011;6303;51.504;6.300;2022-11-14T06:24:15;4.95;;;3.00;;
12476;SDS011;6303;51.504;6.300;2022-11-14T06:27:01;4.35;;;2.95;;
12476;SDS011;6303;51.504;6.300;2022-11-14T06:29:48;4.95;;;3.00;;
12476;SDS011;6303;51.504;6.300;2022-11-14T06:32:33;7.57;;;3.33;;
12476;SDS011;6303;51.504;6.300;2022-11-14T06:35:19;3.40;;;3.10;;
12476;SDS011;6303;51.504;6.300;2022-11-14T06:38:04;4.63;;;3.03;;
12476;SDS011;6303;51.504;6.300;2022-11-14T06:40:50;5.50;;;3.08;;
12476;SDS011;6303;51.504;6.300;2022-11-14T06:43:36;5.10;;;3.03;;
12476;SDS011;6303;51.504;6.300;2022-11-14T06:46:24;3.85;;;3.10;;
12476;SDS011;6303;51.504;6.300;2022-11-14T06:49:09;4.22;;;3.30;;
12476;SDS011;6303;51.504;6.300;2022-11-14T06:51:55;4.55;;;2.92;;
12476;SDS011;6303;51.504;6.300;2022-11-14T06:54:40;5.15;;;3.35;;
12476;SDS011;6303;51.504;6.300;2022-11-14T06:57:26;4.78;;;3.75;;
12476;SDS011;6303;51.504;6.300;2022-11-14T07:00:12;4.85;;;2.95;;
12476;SDS011;6303;51.504;6.300;2022-11-14T07:03:00;3.40;;;3.10;;
12476;SDS011;6303;51.504;6.300;2022-11-14T07:05:45;5.65;;;3.00;;
12476;SDS011;6303;51.504;6.300;2022-11-14T07:08:31;3.50;;;3.20;;
12476;SDS011;6303;51.504;6.300;2022-11-14T07:11:17;3.08;;;2.78;;
12476;SDS011;6303;51.504;6.300;2022-11-14T07:14:07;3.47;;;2.97;;
12476;SDS011;6303;51.504;6.300;2022-11-14T07:16:53;3.28;;;2.95;;
12476;SDS011;6303;51.504;6.300;2022-11-14T07:19:40;4.40;;;2.88;;
12476;SDS011;6303;51.504;6.300;2022-11-14T07:22:25;3.50;;;2.95;;
12476;SDS011;6303;51.504;6.300;2022-11-14T07:25:11;4.70;;;2.97;;
12476;SDS011;6303;51.504;6.300;2022-11-14T07:27:57;3.50;;;2.85;;
12476;SDS011;6303;51.504;6.300;2022-11-14T07:30:42;3.30;;;3.00;;
12476;SDS011;6303;51.504;6.300;2022-11-14T07:33:28;3.30;;;3.00;;
12476;SDS011;6303;51.504;6.300;2022-11-14T07:36:15;3.97;;;3.30;;
12476;SDS011;6303;51.504;6.300;2022-11-14T07:39:01;4.65;;;3.38;;
12476;SDS011;6303;51.504;6.300;2022-11-14T07:41:46;3.60;;;3.30;;
12476;SDS011;6303;51.504;6.300;2022-11-14T07:44:32;4.03;;;3.05;;
12476;SDS011;6303;51.504;6.300;2022-11-14T07:47:18;3.65;;;3.10;;
12476;SDS011;6303;51.504;6.300;2022-11-14T07:50:03;3.65;;;3.10;;
12476;SDS011;6303;51.504;6.300;2022-11-14T07:52:51;3.05;;;2.75;;
12476;SDS011;6303;51.504;6.300;2022-11-14T07:55:38;4.03;;;3.20;;
12476;SDS011;6303;51.504;6.300;2022-11-14T07:58:23;3.42;;;3.10;;
12476;SDS011;6303;51.504;6.300;2022-11-14T08:01:09;3.83;;;3.13;;
12476;SDS011;6303;51.504;6.300;2022-11-14T08:03:56;3.17;;;2.97;;
12476;SDS011;6303;51.504;6.300;2022-11-14T08:06:41;3.42;;;3.13;;
12476;SDS011;6303;51.504;6.300;2022-11-14T08:09:28;3.30;;;2.97;;
12476;SDS011;6303;51.504;6.300;2022-11-14T08:12:14;3.60;;;3.28;;
12476;SDS011;6303;51.504;6.300;2022-11-14T08:14:59;3.28;;;2.97;;
12476;SDS011;6303;51.504;6.300;2022-11-14T08:17:45;4.05;;;3.05;;
12476;SDS011;6303;51.504;6.300;2022-11-14T08:20:31;3.85;;;3.00;;
12476;SDS011;6303;51.504;6.300;2022-11-14T08:23:16;3.10;;;2.83;;
12476;SDS011;6303;51.504;6.300;2022-11-14T08:26:03;3.28;;;2.90;;
12476;SDS011;6303;51.504;6.300;2022-11-14T08:28:51;3.50;;;2.70;;
12476;SDS011;6303;51.504;6.300;2022-11-14T08:31:36;3.22;;;2.95;;
12476;SDS011;6303;51.504;6.300;2022-11-14T08:34:22;3.17;;;2.90;;
12476;SDS011;6303;51.504;6.300;2022-11-14T08:37:08;3.63;;;3.20;;
12476;SDS011;6303;51.504;6.300;2022-11-14T08:39:54;3.13;;;2.83;;
12476;SDS011;6303;51.504;6.300;2022-11-14T08:42:41;2.90;;;2.70;;
12476;SDS011;6303;51.504;6.300;2022-11-14T08:45:26;3.53;;;3.22;;
12476;SDS011;6303;51.504;6.300;2022-11-14T08:48:12;3.80;;;3.00;;
12476;SDS011;6303;51.504;6.300;2022-11-14T08:51:00;3.28;;;2.97;;
12476;SDS011;6303;51.504;6.300;2022-11-14T08:53:47;3.42;;;3.13;;
12476;SDS011;6303;51.504;6.300;2022-11-14T08:56:35;3.35;;;3.03;;
12476;SDS011;6303;51.504;6.300;2022-11-14T08:59:21;3.28;;;2.97;;
12476;SDS011;6303;51.504;6.300;2022-11-14T09:02:08;3.40;;;3.10;;
12476;SDS011;6303;51.504;6.300;2022-11-14T09:04:54;3.45;;;3.15;;
12476;SDS011;6303;51.504;6.300;2022-11-14T09:07:40;3.60;;;2.75;;
12476;SDS011;6303;51.504;6.300;2022-11-14T09:10:25;4.28;;;3.47;;
12476;SDS011;6303;51.504;6.300;2022-11-14T09:13:11;3.83;;;3.40;;
12476;SDS011;6303;51.504;6.300;2022-11-14T09:15:58;3.50;;;3.10;;
12476;SDS011;6303;51.504;6.300;2022-11-14T09:18:43;3.45;;;3.13;;
12476;SDS011;6303;51.504;6.300;2022-11-14T09:21:29;3.22;;;2.90;;
12476;SDS011;6303;51.504;6.300;2022-11-14T09:24:15;3.70;;;3.40;;
12476;SDS011;6303;51.504;6.300;2022-11-14T09:27:00;3.42;;;3.00;;
12476;SDS011;6303;51.504;6.300;2022-11-14T09:29:46;3.60;;;3.30;;
12476;SDS011;6303;51.504;6.300;2022-11-14T09:32:33;4.00;;;3.70;;
12476;SDS011;6303;51.504;6.300;2022-11-14T09:35:19;3.83;;;3.53;;
12476;SDS011;6303;51.504;6.300;2022-11-14T09:38:05;4.05;;;3.65;;
12476;SDS011;6303;51.504;6.300;2022-11-14T09:40:54;3.95;;;3.65;;
12476;SDS011;6303;51.504;6.300;2022-11-14T09:43:52;4.13;;;3.72;;
12476;SDS011;6303;51.504;6.300;2022-11-14T09:46:51;4.40;;;4.00;;
12476;SDS011;6303;51.504;6.300;2022-11-14T09:49:43;3.70;;;3.28;;
12476;SDS011;6303;51.504;6.300;2022-11-14T09:52:31;4.07;;;3.72;;
12476;SDS011;6303;51.504;6.300;2022-11-14T09:55:21;3.60;;;3.30;;
12476;SDS011;6303;51.504;6.300;2022-11-14T09:58:07;4.80;;;4.30;;
12476;SDS011;6303;51.504;6.300;2022-11-14T10:01:02;3.65;;;3.35;;
12476;SDS011;6303;51.504;6.300;2022-11-14T10:03:52;4.30;;;3.80;;
12476;SDS011;6303;51.504;6.300;2022-11-14T10:06:49;3.63;;;3.25;;
12476;SDS011;6303;51.504;6.300;2022-11-14T10:09:49;3.70;;;3.38;;
12476;SDS011;6303;51.504;6.300;2022-11-14T10:12:42;4.40;;;4.03;;
12476;SDS011;6303;51.504;6.300;2022-11-14T10:15:36;3.90;;;3.53;;
12476;SDS011;6303;51.504;6.300;2022-11-14T10:18:34;4.13;;;3.72;;
12476;SDS011;6303;51.504;6.300;2022-11-14T10:21:39;3.63;;;3.33;;
12476;SDS011;6303;51.504;6.300;2022-11-14T10:24:42;4.10;;;3.75;;
12476;SDS011;6303;51.504;6.300;2022-11-14T10:27:37;4.18;;;3.78;;
12476;SDS011;6303;51.504;6.300;2022-11-14T10:30:29;3.75;;;3.15;;
12476;SDS011;6303;51.504;6.300;2022-11-14T10:33:26;3.60;;;3.30;;
12476;SDS011;6303;51.504;6.300;2022-11-14T10:36:22;3.60;;;3.30;;
12476;SDS011;6303;51.504;6.300;2022-11-14T10:39:18;3.55;;;3.25;;
12476;SDS011;6303;51.504;6.300;2022-11-14T10:42:10;3.40;;;3.08;;
12476;SDS011;6303;51.504;6.300;2022-11-14T10:45:01;4.00;;;3.60;;
12476;SDS011;6303;51.504;6.300;2022-11-14T10:47:51;3.70;;;3.40;;
12476;SDS011;6303;51.504;6.300;2022-11-14T10:50:42;4.10;;;3.72;;
12476;SDS011;6303;51.504;6.300;2022-11-14T10:56:44;3.80;;;3.45;;
12476;SDS011;6303;51.504;6.300;2022-11-14T10:59:32;3.70;;;3.40;;
12476;SDS011;6303;51.504;6.300;2022-11-14T11:02:19;4.10;;;3.70;;
12476;SDS011;6303;51.504;6.300;2022-11-14T11:05:15;4.18;;;3.70;;
12476;SDS011;6303;51.504;6.300;2022-11-14T11:08:02;4.03;;;3.55;;
12476;SDS011;6303;51.504;6.300;2022-11-14T11:11:13;3.90;;;3.50;;
12476;SDS011;6303;51.504;6.300;2022-11-14T11:14:15;3.83;;;3.45;;
12476;SDS011;6303;51.504;6.300;2022-11-14T11:17:17;3.72;;;3.40;;
12476;SDS011;6303;51.504;6.300;2022-11-14T11:20:20;4.30;;;3.90;;
12476;SDS011;6303;51.504;6.300;2022-11-14T11:23:16;4.07;;;3.55;;
12476;SDS011;6303;51.504;6.300;2022-11-14T11:26:04;3.90;;;3.53;;
12476;SDS011;6303;51.504;6.300;2022-11-14T11:29:00;3.67;;;3.38;;
12476;SDS011;6303;51.504;6.300;2022-11-14T11:31:59;3.53;;;3.22;;
12476;SDS011;6303;51.504;6.300;2022-11-14T11:34:46;4.30;;;3.90;;
12476;SDS011;6303;51.504;6.300;2022-11-14T11:37:32;3.60;;;3.30;;
12476;SDS011;6303;51.504;6.300;2022-11-14T11:40:23;4.22;;;3.83;;
12476;SDS011;6303;51.504;6.300;2022-11-14T11:43:12;4.13;;;3.38;;
12476;SDS011;6303;51.504;6.300;2022-11-14T11:46:05;3.60;;;3.30;;
12476;SDS011;6303;51.504;6.300;2022-11-14T11:48:58;3.50;;;3.20;;
12476;SDS011;6303;51.504;6.300;2022-11-14T11:51:51;3.78;;;3.47;;
12476;SDS011;6303;51.504;6.300;2022-11-14T11:54:44;4.25;;;3.85;;
12476;SDS011;6303;51.504;6.300;2022-11-14T11:57:35;4.22;;;3.83;;
12476;SDS011;6303;51.504;6.300;2022-11-14T12:00:26;4.07;;;3.60;;
12476;SDS011;6303;51.504;6.300;2022-11-14T12:03:12;3.63;;;3.33;;
12476;SDS011;6303;51.504;6.300;2022-11-14T12:06:02;3.63;;;3.33;;
12476;SDS011;6303;51.504;6.300;2022-11-14T12:09:00;4.05;;;3.70;;
12476;SDS011;6303;51.504;6.300;2022-11-14T12:11:51;3.70;;;3.40;;
12476;SDS011;6303;51.504;6.300;2022-11-14T12:14:54;3.75;;;3.45;;
12476;SDS011;6303;51.504;6.300;2022-11-14T12:18:00;4.20;;;3.80;;
12476;SDS011;6303;51.504;6.300;2022-11-14T12:21:05;3.70;;;3.40;;
12476;SDS011;6303;51.504;6.300;2022-11-14T12:27:23;3.90;;;3.60;;
12476;SDS011;6303;51.504;6.300;2022-11-14T12:30:18;3.40;;;3.10;;
12476;SDS011;6303;51.504;6.300;2022-11-14T12:33:07;3.70;;;3.40;;
12476;SDS011;6303;51.504;6.300;2022-11-14T12:35:56;4.20;;;3.67;;
12476;SDS011;6303;51.504;6.300;2022-11-14T12:38:44;3.85;;;3.50;;
12476;SDS011;6303;51.504;6.300;2022-11-14T12:41:33;3.75;;;3.45;;
12476;SDS011;6303;51.504;6.300;2022-11-14T12:44:30;3.60;;;3.30;;
12476;SDS011;6303;51.504;6.300;2022-11-14T12:47:20;3.70;;;3.40;;
12476;SDS011;6303;51.504;6.300;2022-11-14T12:50:26;3.70;;;3.40;;
12476;SDS011;6303;51.504;6.300;2022-11-14T12:53:36;3.78;;;3.47;;
12476;SDS011;6303;51.504;6.300;2022-11-14T12:59:48;3.80;;;3.50;;
12476;SDS011;6303;51.504;6.300;2022-11-14T13:06:03;3.65;;;3.35;;
12476;SDS011;6303;51.504;6.300;2022-11-14T13:12:27;3.25;;;2.97;;
12476;SDS011;6303;51.504;6.300;2022-11-14T13:15:35;3.70;;;3.40;;
12476;SDS011;6303;51.504;6.300;2022-11-14T13:18:50;3.28;;;2.97;;
12476;SDS011;6303;51.504;6.300;2022-11-14T13:25:16;3.42;;;3.15;;
12476;SDS011;6303;51.504;6.300;2022-11-14T13:31:24;3.53;;;3.22;;
12476;SDS011;6303;51.504;6.300;2022-11-14T13:34:35;3.50;;;3.20;;
12476;SDS011;6303;51.504;6.300;2022-11-14T13:37:53;3.83;;;3.42;;
12476;SDS011;6303;51.504;6.300;2022-11-14T13:41:02;3.78;;;3.40;;
12476;SDS011;6303;51.504;6.300;2022-11-14T13:44:01;4.10;;;3.45;;
12476;SDS011;6303;51.504;6.300;2022-11-14T13:47:05;3.92;;;3.63;;
12476;SDS011;6303;51.504;6.300;2022-11-14T13:50:13;3.45;;;3.20;;
12476;SDS011;6303;51.504;6.300;2022-11-14T13:53:01;4.50;;;3.08;;
12476;SDS011;6303;51.504;6.300;2022-11-14T13:55:55;3.67;;;3.38;;
12476;SDS011;6303;51.504;6.300;2022-11-14T13:58:56;3.63;;;3.33;;
12476;SDS011;6303;51.504;6.300;2022-11-14T14:02:10;4.22;;;3.83;;
12476;SDS011;6303;51.504;6.300;2022-11-14T14:05:17;5.05;;;4.28;;
12476;SDS011;6303;51.504;6.300;2022-11-14T14:08:12;6.20;;;4.50;;
12476;SDS011;6303;51.504;6.300;2022-11-14T14:11:19;7.43;;;4.45;;
12476;SDS011;6303;51.504;6.300;2022-11-14T14:14:23;6.68;;;5.05;;
12476;SDS011;6303;51.504;6.300;2022-11-14T14:17:31;6.65;;;5.20;;
12476;SDS011;6303;51.504;6.300;2022-11-14T14:20:30;4.93;;;4.35;;
12476;SDS011;6303;51.504;6.300;2022-11-14T14:23:27;5.53;;;4.18;;
12476;SDS011;6303;51.504;6.300;2022-11-14T14:26:25;4.50;;;4.05;;
12476;SDS011;6303;51.504;6.300;2022-11-14T14:29:20;5.75;;;4.15;;
12476;SDS011;6303;51.504;6.300;2022-11-14T14:32:10;5.47;;;4.05;;
12476;SDS011;6303;51.504;6.300;2022-11-14T14:34:58;5.05;;;3.95;;
12476;SDS011;6303;51.504;6.300;2022-11-14T14:37:48;4.50;;;4.00;;
12476;SDS011;6303;51.504;6.300;2022-11-14T14:40:35;6.43;;;4.25;;
12476;SDS011;6303;51.504;6.300;2022-11-14T14:43:23;6.10;;;4.03;;
12476;SDS011;6303;51.504;6.300;2022-11-14T14:46:13;5.45;;;3.78;;
12476;SDS011;6303;51.504;6.300;2022-11-14T14:48:59;5.40;;;4.20;;
12476;SDS011;6303;51.504;6.300;2022-11-14T14:51:48;4.32;;;3.60;;
12476;SDS011;6303;51.504;6.300;2022-11-14T14:54:34;4.68;;;3.90;;
12476;SDS011;6303;51.504;6.300;2022-11-14T14:57:19;5.40;;;4.25;;
12476;SDS011;6303;51.504;6.300;2022-11-14T15:00:05;5.22;;;3.95;;
12476;SDS011;6303;51.504;6.300;2022-11-14T15:03:00;5.07;;;4.05;;
12476;SDS011;6303;51.504;6.300;2022-11-14T15:05:48;6.03;;;4.00;;
12476;SDS011;6303;51.504;6.300;2022-11-14T15:08:41;4.57;;;3.55;;
12476;SDS011;6303;51.504;6.300;2022-11-14T15:11:29;4.93;;;3.70;;
12476;SDS011;6303;51.504;6.300;2022-11-14T15:14:16;5.75;;;3.63;;
12476;SDS011;6303;51.504;6.300;2022-11-14T15:17:04;7.07;;;4.43;;
12476;SDS011;6303;51.504;6.300;2022-11-14T15:19:51;7.07;;;3.85;;
12476;SDS011;6303;51.504;6.300;2022-11-14T15:22:37;6.63;;;4.13;;
12476;SDS011;6303;51.504;6.300;2022-11-14T15:25:25;4.75;;;3.90;;
12476;SDS011;6303;51.504;6.300;2022-11-14T15:28:12;7.07;;;3.88;;
12476;SDS011;6303;51.504;6.300;2022-11-14T15:31:00;5.28;;;4.32;;
12476;SDS011;6303;51.504;6.300;2022-11-14T15:33:59;4.32;;;3.90;;
12476;SDS011;6303;51.504;6.300;2022-11-14T15:40:14;4.80;;;3.72;;
12476;SDS011;6303;51.504;6.300;2022-11-14T15:46:25;4.05;;;3.63;;
12476;SDS011;6303;51.504;6.300;2022-11-14T15:49:35;5.43;;;3.90;;
12476;SDS011;6303;51.504;6.300;2022-11-14T15:52:23;5.13;;;4.07;;
12476;SDS011;6303;51.504;6.300;2022-11-14T15:55:12;4.55;;;4.15;;
12476;SDS011;6303;51.504;6.300;2022-11-14T15:58:00;4.32;;;3.70;;
12476;SDS011;6303;51.504;6.300;2022-11-14T16:00:48;4.95;;;4.03;;
12476;SDS011;6303;51.504;6.300;2022-11-14T16:03:35;6.05;;;4.45;;
12476;SDS011;6303;51.504;6.300;2022-11-14T16:06:21;5.10;;;4.00;;
12476;SDS011;6303;51.504;6.300;2022-11-14T16:09:10;5.00;;;4.20;;
12476;SDS011;6303;51.504;6.300;2022-11-14T16:11:58;6.35;;;4.90;;
12476;SDS011;6303;51.504;6.300;2022-11-14T16:14:44;4.63;;;3.75;;
12476;SDS011;6303;51.504;6.300;2022-11-14T16:17:33;4.63;;;4.13;;
12476;SDS011;6303;51.504;6.300;2022-11-14T16:20:20;5.43;;;3.80;;
12476;SDS011;6303;51.504;6.300;2022-11-14T16:23:08;4.78;;;4.05;;
12476;SDS011;6303;51.504;6.300;2022-11-14T16:25:56;4.13;;;3.72;;
12476;SDS011;6303;51.504;6.300;2022-11-14T16:28:42;4.50;;;3.75;;
12476;SDS011;6303;51.504;6.300;2022-11-14T16:31:27;6.63;;;3.95;;
12476;SDS011;6303;51.504;6.300;2022-11-14T16:34:17;4.18;;;3.88;;
12476;SDS011;6303;51.504;6.300;2022-11-14T16:37:04;4.70;;;4.20;;
12476;SDS011;6303;51.504;6.300;2022-11-14T16:39:50;4.32;;;3.92;;
12476;SDS011;6303;51.504;6.300;2022-11-14T16:42:36;5.30;;;4.05;;
12476;SDS011;6303;51.504;6.300;2022-11-14T16:45:21;4.50;;;4.00;;
12476;SDS011;6303;51.504;6.300;2022-11-14T16:48:08;4.13;;;3.72;;
12476;SDS011;6303;51.504;6.300;2022-11-14T16:50:55;4.20;;;3.80;;
12476;SDS011;6303;51.504;6.300;2022-11-14T16:53:44;3.95;;;3.58;;
12476;SDS011;6303;51.504;6.300;2022-11-14T16:56:29;4.60;;;4.03;;
12476;SDS011;6303;51.504;6.300;2022-11-14T16:59:15;4.32;;;3.65;;
12476;SDS011;6303;51.504;6.300;2022-11-14T17:02:00;5.10;;;3.90;;
12476;SDS011;6303;51.504;6.300;2022-11-14T17:04:46;4.25;;;3.85;;
12476;SDS011;6303;51.504;6.300;2022-11-14T17:07:33;4.38;;;3.90;;
12476;SDS011;6303;51.504;6.300;2022-11-14T17:10:18;4.57;;;4.15;;
12476;SDS011;6303;51.504;6.300;2022-11-14T17:13:04;4.63;;;3.97;;
12476;SDS011;6303;51.504;6.300;2022-11-14T17:15:50;4.43;;;4.00;;
12476;SDS011;6303;51.504;6.300;2022-11-14T17:18:35;3.90;;;3.53;;
12476;SDS011;6303;51.504;6.300;2022-11-14T17:21:21;4.30;;;3.90;;
12476;SDS011;6303;51.504;6.300;2022-11-14T17:24:09;4.20;;;3.80;;
12476;SDS011;6303;51.504;6.300;2022-11-14T17:26:54;4.90;;;4.40;;
12476;SDS011;6303;51.504;6.300;2022-11-14T17:29:40;4.32;;;3.92;;
12476;SDS011;6303;51.504;6.300;2022-11-14T17:32:26;5.43;;;3.90;;
12476;SDS011;6303;51.504;6.300;2022-11-14T17:35:13;5.20;;;4.18;;
12476;SDS011;6303;51.504;6.300;2022-11-14T17:37:59;4.88;;;4.38;;
12476;SDS011;6303;51.504;6.300;2022-11-14T17:40:46;3.97;;;3.63;;
12476;SDS011;6303;51.504;6.300;2022-11-14T17:43:31;4.45;;;4.00;;